sensor_id;sensor_type;location;lat;lon;timestamp;P1;durP1;ratioP1;P2;durP2;ratioP2
42124;SDS011;27787;44.594;11.046;2023-09-19T00:00:43;13.25;;;4.45;;
42124;SDS011;27787;44.594;11.046;2023-09-19T00:03:30;26.23;;;4.72;;
42124;SDS011;27787;44.594;11.046;2023-09-19T00:06:15;14.07;;;4.80;;
42124;SDS011;27787;44.594;11.046;2023-09-19T00:08:59;16.70;;;4.20;;
42124;SDS011;27787;44.594;11.046;2023-09-19T00:11:44;14.70;;;5.07;;
42124;SDS011;27787;44.594;11.046;2023-09-19T00:17:13;21.10;;;5.03;;
42124;SDS011;27787;44.594;11.046;2023-09-19T00:19:59;17.38;;;4.57;;
42124;SDS011;27787;44.594;11.046;2023-09-19T00:22:51;13.77;;;5.13;;
42124;SDS011;27787;44.594;11.046;2023-09-19T00:25:36;14.60;;;4.17;;
42124;SDS011;27787;44.594;11.046;2023-09-19T00:28:20;21.55;;;4.50;;
42124;SDS011;27787;44.594;11.046;2023-09-19T00:31:07;18.87;;;5.20;;
42124;SDS011;27787;44.594;11.046;2023-09-19T00:33:52;14.82;;;4.18;;
42124;SDS011;27787;44.594;11.046;2023-09-19T00:36:37;15.40;;;4.73;;
42124;SDS011;27787;44.594;11.046;2023-09-19T00:39:24;18.52;;;5.43;;
42124;SDS011;27787;44.594;11.046;2023-09-19T00:42:09;19.95;;;6.70;;
42124;SDS011;27787;44.594;11.046;2023-09-19T00:45:03;13.18;;;5.53;;
42124;SDS011;27787;44.594;11.046;2023-09-19T00:47:49;12.00;;;4.63;;
42124;SDS011;27787;44.594;11.046;2023-09-19T00:50:35;18.33;;;5.43;;
42124;SDS011;27787;44.594;11.046;2023-09-19T00:53:20;17.80;;;5.28;;
42124;SDS011;27787;44.594;11.046;2023-09-19T00:56:07;13.98;;;5.32;;
42124;SDS011;27787;44.594;11.046;2023-09-19T00:58:51;15.07;;;5.83;;
42124;SDS011;27787;44.594;11.046;2023-09-19T01:01:35;15.07;;;5.55;;
42124;SDS011;27787;44.594;11.046;2023-09-19T01:04:23;13.65;;;4.50;;
42124;SDS011;27787;44.594;11.046;2023-09-19T01:07:07;16.67;;;5.25;;
42124;SDS011;27787;44.594;11.046;2023-09-19T01:09:52;14.88;;;4.80;;
42124;SDS011;27787;44.594;11.046;2023-09-19T01:16:10;16.70;;;4.60;;
42124;SDS011;27787;44.594;11.046;2023-09-19T01:28:39;19.95;;;6.20;;
42124;SDS011;27787;44.594;11.046;2023-09-19T01:31:38;14.00;;;5.03;;
42124;SDS011;27787;44.594;11.046;2023-09-19T01:34:25;24.08;;;5.60;;
42124;SDS011;27787;44.594;11.046;2023-09-19T01:40:04;19.67;;;5.18;;
42124;SDS011;27787;44.594;11.046;2023-09-19T01:46:04;14.68;;;5.18;;
42124;SDS011;27787;44.594;11.046;2023-09-19T01:48:57;15.13;;;5.20;;
42124;SDS011;27787;44.594;11.046;2023-09-19T01:54:51;22.35;;;6.10;;
42124;SDS011;27787;44.594;11.046;2023-09-19T01:57:48;21.42;;;5.40;;
42124;SDS011;27787;44.594;11.046;2023-09-19T02:00:38;22.58;;;5.35;;
42124;SDS011;27787;44.594;11.046;2023-09-19T02:03:27;15.85;;;5.00;;
42124;SDS011;27787;44.594;11.046;2023-09-19T02:06:13;12.90;;;4.85;;
42124;SDS011;27787;44.594;11.046;2023-09-19T02:09:02;22.00;;;5.50;;
42124;SDS011;27787;44.594;11.046;2023-09-19T02:11:47;22.42;;;5.63;;
42124;SDS011;27787;44.594;11.046;2023-09-19T02:14:33;14.85;;;5.10;;
42124;SDS011;27787;44.594;11.046;2023-09-19T02:17:20;22.77;;;6.35;;
42124;SDS011;27787;44.594;11.046;2023-09-19T02:20:05;15.05;;;4.95;;
42124;SDS011;27787;44.594;11.046;2023-09-19T02:22:53;18.00;;;5.90;;
42124;SDS011;27787;44.594;11.046;2023-09-19T02:25:38;17.63;;;5.47;;
42124;SDS011;27787;44.594;11.046;2023-09-19T02:28:26;16.20;;;4.55;;
42124;SDS011;27787;44.594;11.046;2023-09-19T02:31:14;20.40;;;5.47;;
42124;SDS011;27787;44.594;11.046;2023-09-19T02:34:00;26.85;;;6.88;;
42124;SDS011;27787;44.594;11.046;2023-09-19T02:36:44;25.85;;;5.90;;
42124;SDS011;27787;44.594;11.046;2023-09-19T02:39:28;20.92;;;5.50;;
42124;SDS011;27787;44.594;11.046;2023-09-19T02:42:13;23.97;;;6.30;;
42124;SDS011;27787;44.594;11.046;2023-09-19T02:44:57;15.93;;;4.93;;
42124;SDS011;27787;44.594;11.046;2023-09-19T02:47:43;23.38;;;6.05;;
42124;SDS011;27787;44.594;11.046;2023-09-19T02:50:32;20.17;;;5.32;;
42124;SDS011;27787;44.594;11.046;2023-09-19T02:53:17;16.02;;;4.65;;
42124;SDS011;27787;44.594;11.046;2023-09-19T02:56:02;18.73;;;4.68;;
42124;SDS011;27787;44.594;11.046;2023-09-19T02:58:48;19.23;;;4.93;;
42124;SDS011;27787;44.594;11.046;2023-09-19T03:01:32;21.53;;;5.40;;
42124;SDS011;27787;44.594;11.046;2023-09-19T03:04:18;13.73;;;5.35;;
42124;SDS011;27787;44.594;11.046;2023-09-19T03:07:05;17.83;;;5.30;;
42124;SDS011;27787;44.594;11.046;2023-09-19T03:09:49;14.73;;;5.53;;
42124;SDS011;27787;44.594;11.046;2023-09-19T03:12:36;14.68;;;4.88;;
42124;SDS011;27787;44.594;11.046;2023-09-19T03:15:24;19.48;;;6.13;;
42124;SDS011;27787;44.594;11.046;2023-09-19T03:18:10;23.50;;;5.78;;
42124;SDS011;27787;44.594;11.046;2023-09-19T03:20:55;19.67;;;5.53;;
42124;SDS011;27787;44.594;11.046;2023-09-19T03:23:40;18.10;;;5.68;;
42124;SDS011;27787;44.594;11.046;2023-09-19T03:26:25;20.97;;;5.70;;
42124;SDS011;27787;44.594;11.046;2023-09-19T03:31:55;24.00;;;5.57;;
42124;SDS011;27787;44.594;11.046;2023-09-19T03:34:39;32.80;;;7.40;;
42124;SDS011;27787;44.594;11.046;2023-09-19T03:37:27;19.13;;;5.70;;
42124;SDS011;27787;44.594;11.046;2023-09-19T03:40:11;18.60;;;5.07;;
42124;SDS011;27787;44.594;11.046;2023-09-19T03:42:58;17.50;;;5.20;;
42124;SDS011;27787;44.594;11.046;2023-09-19T03:45:46;20.38;;;6.15;;
42124;SDS011;27787;44.594;11.046;2023-09-19T03:48:36;18.15;;;5.97;;
42124;SDS011;27787;44.594;11.046;2023-09-19T03:51:21;19.40;;;5.72;;
42124;SDS011;27787;44.594;11.046;2023-09-19T03:54:05;22.23;;;6.07;;
42124;SDS011;27787;44.594;11.046;2023-09-19T03:56:50;16.20;;;4.88;;
42124;SDS011;27787;44.594;11.046;2023-09-19T03:59:34;24.17;;;6.18;;
42124;SDS011;27787;44.594;11.046;2023-09-19T04:02:20;15.27;;;4.75;;
42124;SDS011;27787;44.594;11.046;2023-09-19T04:05:08;24.00;;;5.38;;
42124;SDS011;27787;44.594;11.046;2023-09-19T04:07:52;13.40;;;4.55;;
42124;SDS011;27787;44.594;11.046;2023-09-19T04:13:22;22.30;;;5.65;;
42124;SDS011;27787;44.594;11.046;2023-09-19T04:16:06;15.13;;;4.78;;
42124;SDS011;27787;44.594;11.046;2023-09-19T04:18:54;18.83;;;4.57;;
42124;SDS011;27787;44.594;11.046;2023-09-19T04:21:39;12.83;;;4.60;;
42124;SDS011;27787;44.594;11.046;2023-09-19T04:24:23;14.07;;;4.90;;
42124;SDS011;27787;44.594;11.046;2023-09-19T04:27:07;13.48;;;5.45;;
42124;SDS011;27787;44.594;11.046;2023-09-19T04:29:53;15.45;;;4.85;;
42124;SDS011;27787;44.594;11.046;2023-09-19T04:32:38;19.65;;;5.35;;
42124;SDS011;27787;44.594;11.046;2023-09-19T04:35:25;17.63;;;5.72;;
42124;SDS011;27787;44.594;11.046;2023-09-19T04:38:10;23.38;;;5.45;;
42124;SDS011;27787;44.594;11.046;2023-09-19T04:40:58;18.73;;;5.97;;
42124;SDS011;27787;44.594;11.046;2023-09-19T04:43:43;12.65;;;4.55;;
42124;SDS011;27787;44.594;11.046;2023-09-19T04:46:26;19.85;;;5.78;;
42124;SDS011;27787;44.594;11.046;2023-09-19T04:49:10;19.85;;;5.13;;
42124;SDS011;27787;44.594;11.046;2023-09-19T04:51:55;21.50;;;5.90;;
42124;SDS011;27787;44.594;11.046;2023-09-19T04:54:39;18.70;;;6.07;;
42124;SDS011;27787;44.594;11.046;2023-09-19T04:57:24;24.38;;;8.10;;
42124;SDS011;27787;44.594;11.046;2023-09-19T05:00:09;17.77;;;6.53;;
42124;SDS011;27787;44.594;11.046;2023-09-19T05:02:56;21.23;;;5.90;;
42124;SDS011;27787;44.594;11.046;2023-09-19T05:05:41;14.80;;;5.93;;
42124;SDS011;27787;44.594;11.046;2023-09-19T05:08:26;19.65;;;5.57;;
42124;SDS011;27787;44.594;11.046;2023-09-19T05:11:10;22.83;;;5.00;;
42124;SDS011;27787;44.594;11.046;2023-09-19T05:13:54;23.00;;;5.07;;
42124;SDS011;27787;44.594;11.046;2023-09-19T05:16:38;19.80;;;5.78;;
42124;SDS011;27787;44.594;11.046;2023-09-19T05:22:08;17.25;;;5.68;;
42124;SDS011;27787;44.594;11.046;2023-09-19T05:24:52;12.95;;;4.80;;
42124;SDS011;27787;44.594;11.046;2023-09-19T05:27:36;19.17;;;5.25;;
42124;SDS011;27787;44.594;11.046;2023-09-19T05:30:20;20.65;;;5.20;;
42124;SDS011;27787;44.594;11.046;2023-09-19T05:33:04;17.67;;;5.63;;
42124;SDS011;27787;44.594;11.046;2023-09-19T05:35:49;16.60;;;5.55;;
42124;SDS011;27787;44.594;11.046;2023-09-19T05:38:33;21.38;;;5.82;;
42124;SDS011;27787;44.594;11.046;2023-09-19T05:41:17;15.13;;;5.80;;
42124;SDS011;27787;44.594;11.046;2023-09-19T05:44:01;17.65;;;4.85;;
42124;SDS011;27787;44.594;11.046;2023-09-19T05:46:46;12.65;;;4.65;;
42124;SDS011;27787;44.594;11.046;2023-09-19T05:52:15;13.48;;;4.68;;
42124;SDS011;27787;44.594;11.046;2023-09-19T05:55:01;16.63;;;5.40;;
42124;SDS011;27787;44.594;11.046;2023-09-19T05:57:49;21.05;;;5.75;;
42124;SDS011;27787;44.594;11.046;2023-09-19T06:00:36;18.13;;;4.43;;
42124;SDS011;27787;44.594;11.046;2023-09-19T06:03:21;14.93;;;4.45;;
42124;SDS011;27787;44.594;11.046;2023-09-19T06:06:05;21.05;;;4.82;;
42124;SDS011;27787;44.594;11.046;2023-09-19T06:08:50;21.67;;;5.10;;
42124;SDS011;27787;44.594;11.046;2023-09-19T06:11:34;21.08;;;5.80;;
42124;SDS011;27787;44.594;11.046;2023-09-19T06:17:04;17.67;;;5.85;;
42124;SDS011;27787;44.594;11.046;2023-09-19T06:19:48;24.65;;;7.65;;
42124;SDS011;27787;44.594;11.046;2023-09-19T06:25:18;21.83;;;6.00;;
42124;SDS011;27787;44.594;11.046;2023-09-19T06:28:05;22.48;;;6.32;;
42124;SDS011;27787;44.594;11.046;2023-09-19T06:30:52;18.75;;;6.20;;
42124;SDS011;27787;44.594;11.046;2023-09-19T06:33:36;23.92;;;6.28;;
42124;SDS011;27787;44.594;11.046;2023-09-19T06:36:23;26.08;;;8.25;;
42124;SDS011;27787;44.594;11.046;2023-09-19T06:39:08;17.17;;;6.20;;
42124;SDS011;27787;44.594;11.046;2023-09-19T06:41:54;26.45;;;6.85;;
42124;SDS011;27787;44.594;11.046;2023-09-19T06:44:39;16.75;;;7.93;;
42124;SDS011;27787;44.594;11.046;2023-09-19T06:47:23;22.90;;;8.82;;
42124;SDS011;27787;44.594;11.046;2023-09-19T06:50:09;24.45;;;8.00;;
42124;SDS011;27787;44.594;11.046;2023-09-19T06:52:57;29.17;;;10.55;;
42124;SDS011;27787;44.594;11.046;2023-09-19T06:55:43;28.02;;;10.02;;
42124;SDS011;27787;44.594;11.046;2023-09-19T06:58:27;30.27;;;10.83;;
42124;SDS011;27787;44.594;11.046;2023-09-19T07:01:11;29.23;;;10.50;;
42124;SDS011;27787;44.594;11.046;2023-09-19T07:03:58;37.28;;;11.95;;
42124;SDS011;27787;44.594;11.046;2023-09-19T07:06:42;30.75;;;11.90;;
42124;SDS011;27787;44.594;11.046;2023-09-19T07:09:26;31.42;;;12.77;;
42124;SDS011;27787;44.594;11.046;2023-09-19T07:12:12;34.35;;;13.40;;
42124;SDS011;27787;44.594;11.046;2023-09-19T07:14:57;34.35;;;12.18;;
42124;SDS011;27787;44.594;11.046;2023-09-19T07:17:41;40.72;;;14.05;;
42124;SDS011;27787;44.594;11.046;2023-09-19T07:20:25;29.97;;;12.93;;
42124;SDS011;27787;44.594;11.046;2023-09-19T07:23:11;36.13;;;13.57;;
42124;SDS011;27787;44.594;11.046;2023-09-19T07:25:59;32.25;;;12.65;;
42124;SDS011;27787;44.594;11.046;2023-09-19T07:28:44;31.35;;;12.43;;
42124;SDS011;27787;44.594;11.046;2023-09-19T07:31:28;28.40;;;13.45;;
42124;SDS011;27787;44.594;11.046;2023-09-19T07:36:57;28.55;;;10.75;;
42124;SDS011;27787;44.594;11.046;2023-09-19T07:39:42;36.17;;;13.20;;
42124;SDS011;27787;44.594;11.046;2023-09-19T07:42:27;28.65;;;11.93;;
42124;SDS011;27787;44.594;11.046;2023-09-19T07:45:11;32.13;;;10.40;;
42124;SDS011;27787;44.594;11.046;2023-09-19T07:48:00;37.70;;;11.30;;
42124;SDS011;27787;44.594;11.046;2023-09-19T07:50:48;27.70;;;10.68;;
42124;SDS011;27787;44.594;11.046;2023-09-19T07:53:32;22.53;;;9.53;;
42124;SDS011;27787;44.594;11.046;2023-09-19T07:56:20;22.10;;;9.18;;
42124;SDS011;27787;44.594;11.046;2023-09-19T07:59:05;20.48;;;8.68;;
42124;SDS011;27787;44.594;11.046;2023-09-19T08:01:48;20.25;;;8.93;;
42124;SDS011;27787;44.594;11.046;2023-09-19T08:04:32;27.50;;;9.02;;
42124;SDS011;27787;44.594;11.046;2023-09-19T08:07:17;20.50;;;8.27;;
42124;SDS011;27787;44.594;11.046;2023-09-19T08:10:05;19.83;;;8.70;;
42124;SDS011;27787;44.594;11.046;2023-09-19T08:12:57;17.52;;;8.15;;
42124;SDS011;27787;44.594;11.046;2023-09-19T08:15:43;24.15;;;8.52;;
42124;SDS011;27787;44.594;11.046;2023-09-19T08:18:28;26.30;;;8.70;;
42124;SDS011;27787;44.594;11.046;2023-09-19T08:21:14;20.85;;;7.60;;
42124;SDS011;27787;44.594;11.046;2023-09-19T08:23:59;19.10;;;7.60;;
42124;SDS011;27787;44.594;11.046;2023-09-19T08:26:45;13.25;;;7.53;;
42124;SDS011;27787;44.594;11.046;2023-09-19T08:29:30;19.63;;;8.30;;
42124;SDS011;27787;44.594;11.046;2023-09-19T08:32:15;20.83;;;8.45;;
42124;SDS011;27787;44.594;11.046;2023-09-19T08:34:59;17.02;;;7.53;;
42124;SDS011;27787;44.594;11.046;2023-09-19T08:37:44;23.58;;;9.95;;
42124;SDS011;27787;44.594;11.046;2023-09-19T08:40:32;22.98;;;9.40;;
42124;SDS011;27787;44.594;11.046;2023-09-19T08:43:21;20.58;;;8.23;;
42124;SDS011;27787;44.594;11.046;2023-09-19T08:49:02;19.63;;;8.23;;
42124;SDS011;27787;44.594;11.046;2023-09-19T08:51:52;22.25;;;7.63;;
42124;SDS011;27787;44.594;11.046;2023-09-19T08:54:43;17.55;;;7.22;;
42124;SDS011;27787;44.594;11.046;2023-09-19T08:57:33;19.90;;;7.72;;
42124;SDS011;27787;44.594;11.046;2023-09-19T09:00:21;19.10;;;6.85;;
42124;SDS011;27787;44.594;11.046;2023-09-19T09:03:06;17.67;;;7.55;;
42124;SDS011;27787;44.594;11.046;2023-09-19T09:05:55;23.17;;;9.35;;
42124;SDS011;27787;44.594;11.046;2023-09-19T09:08:41;17.42;;;7.78;;
42124;SDS011;27787;44.594;11.046;2023-09-19T09:11:26;18.45;;;6.78;;
42124;SDS011;27787;44.594;11.046;2023-09-19T09:14:11;20.27;;;7.30;;
42124;SDS011;27787;44.594;11.046;2023-09-19T09:16:57;21.05;;;7.13;;
42124;SDS011;27787;44.594;11.046;2023-09-19T09:22:27;23.15;;;7.63;;
42124;SDS011;27787;44.594;11.046;2023-09-19T09:25:11;22.88;;;7.70;;
42124;SDS011;27787;44.594;11.046;2023-09-19T09:27:58;18.15;;;7.90;;
42124;SDS011;27787;44.594;11.046;2023-09-19T09:30:44;26.73;;;8.30;;
42124;SDS011;27787;44.594;11.046;2023-09-19T09:33:29;18.40;;;7.03;;
42124;SDS011;27787;44.594;11.046;2023-09-19T09:36:14;17.95;;;9.13;;
42124;SDS011;27787;44.594;11.046;2023-09-19T09:38:59;18.50;;;7.67;;
42124;SDS011;27787;44.594;11.046;2023-09-19T09:41:49;16.33;;;7.97;;
42124;SDS011;27787;44.594;11.046;2023-09-19T09:44:33;21.20;;;8.07;;
42124;SDS011;27787;44.594;11.046;2023-09-19T09:47:18;17.30;;;7.55;;
42124;SDS011;27787;44.594;11.046;2023-09-19T09:50:46;21.17;;;7.25;;
42124;SDS011;27787;44.594;11.046;2023-09-19T09:53:40;17.70;;;7.25;;
42124;SDS011;27787;44.594;11.046;2023-09-19T09:56:24;16.25;;;7.20;;
42124;SDS011;27787;44.594;11.046;2023-09-19T09:59:08;19.27;;;8.07;;
42124;SDS011;27787;44.594;11.046;2023-09-19T10:01:53;20.95;;;7.80;;
42124;SDS011;27787;44.594;11.046;2023-09-19T10:04:37;23.30;;;7.10;;
42124;SDS011;27787;44.594;11.046;2023-09-19T10:07:29;26.73;;;8.57;;
42124;SDS011;27787;44.594;11.046;2023-09-19T10:10:32;17.83;;;7.07;;
42124;SDS011;27787;44.594;11.046;2023-09-19T10:13:28;17.02;;;6.78;;
42124;SDS011;27787;44.594;11.046;2023-09-19T10:16:14;21.17;;;6.93;;
42124;SDS011;27787;44.594;11.046;2023-09-19T10:19:02;15.80;;;6.50;;
42124;SDS011;27787;44.594;11.046;2023-09-19T10:21:53;18.35;;;5.75;;
42124;SDS011;27787;44.594;11.046;2023-09-19T10:24:40;23.75;;;7.13;;
42124;SDS011;27787;44.594;11.046;2023-09-19T10:27:25;17.55;;;6.88;;
42124;SDS011;27787;44.594;11.046;2023-09-19T10:30:10;21.15;;;6.95;;
42124;SDS011;27787;44.594;11.046;2023-09-19T10:33:02;20.65;;;6.88;;
42124;SDS011;27787;44.594;11.046;2023-09-19T10:35:48;20.15;;;6.55;;
42124;SDS011;27787;44.594;11.046;2023-09-19T10:38:35;12.25;;;5.32;;
42124;SDS011;27787;44.594;11.046;2023-09-19T10:41:24;17.73;;;6.82;;
42124;SDS011;27787;44.594;11.046;2023-09-19T10:44:08;23.23;;;6.88;;
42124;SDS011;27787;44.594;11.046;2023-09-19T10:46:53;21.05;;;7.57;;
42124;SDS011;27787;44.594;11.046;2023-09-19T10:49:44;19.55;;;7.18;;
42124;SDS011;27787;44.594;11.046;2023-09-19T10:52:32;17.45;;;5.07;;
42124;SDS011;27787;44.594;11.046;2023-09-19T10:55:19;16.38;;;5.57;;
42124;SDS011;27787;44.594;11.046;2023-09-19T10:58:06;19.25;;;4.90;;
42124;SDS011;27787;44.594;11.046;2023-09-19T11:00:59;14.20;;;4.68;;
42124;SDS011;27787;44.594;11.046;2023-09-19T11:03:49;16.02;;;5.38;;
42124;SDS011;27787;44.594;11.046;2023-09-19T11:07:12;14.23;;;5.13;;
42124;SDS011;27787;44.594;11.046;2023-09-19T11:09:58;20.77;;;5.18;;
42124;SDS011;27787;44.594;11.046;2023-09-19T11:27:12;11.77;;;5.50;;
42124;SDS011;27787;44.594;11.046;2023-09-19T11:30:25;17.00;;;5.88;;
42124;SDS011;27787;44.594;11.046;2023-09-19T11:39:03;10.88;;;5.03;;
42124;SDS011;27787;44.594;11.046;2023-09-19T11:41:53;20.52;;;5.20;;
42124;SDS011;27787;44.594;11.046;2023-09-19T11:44:40;16.08;;;4.72;;
42124;SDS011;27787;44.594;11.046;2023-09-19T11:47:25;12.18;;;5.20;;
42124;SDS011;27787;44.594;11.046;2023-09-19T11:50:09;12.25;;;5.13;;
42124;SDS011;27787;44.594;11.046;2023-09-19T11:52:55;13.00;;;4.70;;
42124;SDS011;27787;44.594;11.046;2023-09-19T11:55:40;11.80;;;4.53;;
42124;SDS011;27787;44.594;11.046;2023-09-19T11:58:27;14.23;;;5.63;;
42124;SDS011;27787;44.594;11.046;2023-09-19T12:01:14;15.27;;;5.05;;
42124;SDS011;27787;44.594;11.046;2023-09-19T12:04:05;10.73;;;4.68;;
42124;SDS011;27787;44.594;11.046;2023-09-19T12:06:56;19.27;;;5.25;;
42124;SDS011;27787;44.594;11.046;2023-09-19T12:09:41;14.95;;;4.85;;
42124;SDS011;27787;44.594;11.046;2023-09-19T12:12:31;11.90;;;5.00;;
42124;SDS011;27787;44.594;11.046;2023-09-19T12:15:22;16.65;;;5.53;;
42124;SDS011;27787;44.594;11.046;2023-09-19T12:18:27;17.52;;;5.03;;
42124;SDS011;27787;44.594;11.046;2023-09-19T12:21:21;13.93;;;5.32;;
42124;SDS011;27787;44.594;11.046;2023-09-19T12:24:12;15.40;;;4.50;;
42124;SDS011;27787;44.594;11.046;2023-09-19T12:27:03;13.38;;;4.35;;
42124;SDS011;27787;44.594;11.046;2023-09-19T12:29:49;11.27;;;4.60;;
42124;SDS011;27787;44.594;11.046;2023-09-19T12:32:34;11.25;;;4.65;;
42124;SDS011;27787;44.594;11.046;2023-09-19T12:35:29;20.42;;;5.35;;
42124;SDS011;27787;44.594;11.046;2023-09-19T12:38:27;12.35;;;4.88;;
42124;SDS011;27787;44.594;11.046;2023-09-19T12:41:20;21.08;;;5.50;;
42124;SDS011;27787;44.594;11.046;2023-09-19T12:44:05;16.45;;;4.90;;
42124;SDS011;27787;44.594;11.046;2023-09-19T12:46:53;11.10;;;4.28;;
42124;SDS011;27787;44.594;11.046;2023-09-19T12:52:52;20.17;;;4.32;;
42124;SDS011;27787;44.594;11.046;2023-09-19T12:55:39;12.55;;;4.82;;
42124;SDS011;27787;44.594;11.046;2023-09-19T12:58:26;11.18;;;4.28;;
42124;SDS011;27787;44.594;11.046;2023-09-19T13:01:14;11.35;;;4.68;;
42124;SDS011;27787;44.594;11.046;2023-09-19T13:07:04;10.32;;;4.78;;
42124;SDS011;27787;44.594;11.046;2023-09-19T13:10:04;15.48;;;3.97;;
42124;SDS011;27787;44.594;11.046;2023-09-19T13:12:51;9.50;;;4.63;;
42124;SDS011;27787;44.594;11.046;2023-09-19T13:15:51;21.98;;;4.50;;
42124;SDS011;27787;44.594;11.046;2023-09-19T13:18:42;13.50;;;4.60;;
42124;SDS011;27787;44.594;11.046;2023-09-19T13:21:31;14.55;;;4.03;;
42124;SDS011;27787;44.594;11.046;2023-09-19T13:24:42;9.45;;;3.75;;
42124;SDS011;27787;44.594;11.046;2023-09-19T13:30:12;12.02;;;4.05;;
42124;SDS011;27787;44.594;11.046;2023-09-19T13:35:50;12.55;;;4.95;;
42124;SDS011;27787;44.594;11.046;2023-09-19T13:41:19;15.95;;;4.85;;
42124;SDS011;27787;44.594;11.046;2023-09-19T13:44:03;11.27;;;4.43;;
42124;SDS011;27787;44.594;11.046;2023-09-19T13:46:48;13.48;;;4.82;;
42124;SDS011;27787;44.594;11.046;2023-09-19T13:49:32;8.50;;;3.47;;
42124;SDS011;27787;44.594;11.046;2023-09-19T13:52:18;9.75;;;4.45;;
42124;SDS011;27787;44.594;11.046;2023-09-19T13:55:02;17.52;;;3.83;;
42124;SDS011;27787;44.594;11.046;2023-09-19T14:00:38;14.25;;;4.43;;
42124;SDS011;27787;44.594;11.046;2023-09-19T14:03:22;9.10;;;3.85;;
42124;SDS011;27787;44.594;11.046;2023-09-19T14:06:08;13.70;;;3.92;;
42124;SDS011;27787;44.594;11.046;2023-09-19T14:08:52;9.80;;;3.87;;
42124;SDS011;27787;44.594;11.046;2023-09-19T14:11:36;10.80;;;4.35;;
42124;SDS011;27787;44.594;11.046;2023-09-19T14:14:22;7.95;;;3.45;;
42124;SDS011;27787;44.594;11.046;2023-09-19T14:17:07;10.40;;;4.32;;
42124;SDS011;27787;44.594;11.046;2023-09-19T14:19:51;7.45;;;3.50;;
42124;SDS011;27787;44.594;11.046;2023-09-19T14:22:35;8.32;;;4.20;;
42124;SDS011;27787;44.594;11.046;2023-09-19T14:25:20;13.18;;;4.22;;
42124;SDS011;27787;44.594;11.046;2023-09-19T14:28:05;7.63;;;4.00;;
42124;SDS011;27787;44.594;11.046;2023-09-19T14:30:51;13.27;;;3.85;;
42124;SDS011;27787;44.594;11.046;2023-09-19T14:33:35;13.57;;;4.00;;
42124;SDS011;27787;44.594;11.046;2023-09-19T14:36:21;13.20;;;3.92;;
42124;SDS011;27787;44.594;11.046;2023-09-19T14:39:06;15.15;;;5.05;;
42124;SDS011;27787;44.594;11.046;2023-09-19T14:41:49;10.77;;;4.03;;
42124;SDS011;27787;44.594;11.046;2023-09-19T14:44:34;13.35;;;3.90;;
42124;SDS011;27787;44.594;11.046;2023-09-19T14:47:21;11.32;;;3.80;;
42124;SDS011;27787;44.594;11.046;2023-09-19T14:50:06;7.88;;;3.80;;
42124;SDS011;27787;44.594;11.046;2023-09-19T14:52:50;9.77;;;3.17;;
42124;SDS011;27787;44.594;11.046;2023-09-19T14:55:36;8.88;;;3.80;;
42124;SDS011;27787;44.594;11.046;2023-09-19T14:58:24;7.93;;;3.42;;
42124;SDS011;27787;44.594;11.046;2023-09-19T15:01:11;15.35;;;4.38;;
42124;SDS011;27787;44.594;11.046;2023-09-19T15:03:57;11.50;;;3.67;;
42124;SDS011;27787;44.594;11.046;2023-09-19T15:06:41;7.53;;;3.67;;
42124;SDS011;27787;44.594;11.046;2023-09-19T15:09:25;16.30;;;3.60;;
42124;SDS011;27787;44.594;11.046;2023-09-19T15:14:58;11.93;;;3.67;;
42124;SDS011;27787;44.594;11.046;2023-09-19T15:17:41;7.88;;;3.17;;
42124;SDS011;27787;44.594;11.046;2023-09-19T15:20:25;8.27;;;3.30;;
42124;SDS011;27787;44.594;11.046;2023-09-19T15:23:09;9.57;;;3.47;;
42124;SDS011;27787;44.594;11.046;2023-09-19T15:25:53;9.85;;;3.78;;
42124;SDS011;27787;44.594;11.046;2023-09-19T15:31:23;15.38;;;3.90;;
42124;SDS011;27787;44.594;11.046;2023-09-19T15:34:07;10.43;;;3.70;;
42124;SDS011;27787;44.594;11.046;2023-09-19T15:36:51;13.63;;;3.40;;
42124;SDS011;27787;44.594;11.046;2023-09-19T15:39:35;12.10;;;3.67;;
42124;SDS011;27787;44.594;11.046;2023-09-19T15:42:21;9.25;;;3.50;;
42124;SDS011;27787;44.594;11.046;2023-09-19T15:45:05;13.55;;;3.28;;
42124;SDS011;27787;44.594;11.046;2023-09-19T15:47:50;6.95;;;3.35;;
42124;SDS011;27787;44.594;11.046;2023-09-19T15:50:35;10.98;;;3.83;;
42124;SDS011;27787;44.594;11.046;2023-09-19T15:53:19;8.38;;;3.80;;
42124;SDS011;27787;44.594;11.046;2023-09-19T15:56:05;9.50;;;3.65;;
42124;SDS011;27787;44.594;11.046;2023-09-19T15:58:51;9.05;;;4.20;;
42124;SDS011;27787;44.594;11.046;2023-09-19T16:01:38;8.90;;;3.47;;
42124;SDS011;27787;44.594;11.046;2023-09-19T16:04:24;11.57;;;4.13;;
42124;SDS011;27787;44.594;11.046;2023-09-19T16:07:08;12.40;;;3.70;;
42124;SDS011;27787;44.594;11.046;2023-09-19T16:09:52;7.82;;;3.70;;
42124;SDS011;27787;44.594;11.046;2023-09-19T16:12:36;7.60;;;3.30;;
42124;SDS011;27787;44.594;11.046;2023-09-19T16:15:21;7.45;;;3.40;;
42124;SDS011;27787;44.594;11.046;2023-09-19T16:18:06;7.00;;;3.47;;
42124;SDS011;27787;44.594;11.046;2023-09-19T16:20:50;9.40;;;3.55;;
42124;SDS011;27787;44.594;11.046;2023-09-19T16:23:34;9.80;;;4.43;;
42124;SDS011;27787;44.594;11.046;2023-09-19T16:26:20;14.35;;;3.88;;
42124;SDS011;27787;44.594;11.046;2023-09-19T16:29:05;5.05;;;3.20;;
42124;SDS011;27787;44.594;11.046;2023-09-19T16:31:49;17.13;;;3.70;;
42124;SDS011;27787;44.594;11.046;2023-09-19T16:34:34;11.35;;;4.00;;
42124;SDS011;27787;44.594;11.046;2023-09-19T16:37:18;17.30;;;4.68;;
42124;SDS011;27787;44.594;11.046;2023-09-19T16:40:03;7.95;;;3.35;;
42124;SDS011;27787;44.594;11.046;2023-09-19T16:42:49;9.30;;;3.58;;
42124;SDS011;27787;44.594;11.046;2023-09-19T16:45:33;9.63;;;4.22;;
42124;SDS011;27787;44.594;11.046;2023-09-19T16:48:18;12.20;;;3.85;;
42124;SDS011;27787;44.594;11.046;2023-09-19T16:51:04;13.18;;;4.85;;
42124;SDS011;27787;44.594;11.046;2023-09-19T16:53:50;9.25;;;3.65;;
42124;SDS011;27787;44.594;11.046;2023-09-19T16:56:36;10.57;;;3.80;;
42124;SDS011;27787;44.594;11.046;2023-09-19T16:59:21;12.57;;;3.67;;
42124;SDS011;27787;44.594;11.046;2023-09-19T17:02:07;13.60;;;4.40;;
42124;SDS011;27787;44.594;11.046;2023-09-19T17:04:52;11.23;;;4.22;;
42124;SDS011;27787;44.594;11.046;2023-09-19T17:07:37;8.93;;;3.33;;
42124;SDS011;27787;44.594;11.046;2023-09-19T17:10:22;14.10;;;3.30;;
42124;SDS011;27787;44.594;11.046;2023-09-19T17:13:07;11.68;;;4.32;;
42124;SDS011;27787;44.594;11.046;2023-09-19T17:18:43;9.07;;;3.63;;
42124;SDS011;27787;44.594;11.046;2023-09-19T17:21:27;10.73;;;3.95;;
42124;SDS011;27787;44.594;11.046;2023-09-19T17:24:12;11.55;;;4.00;;
42124;SDS011;27787;44.594;11.046;2023-09-19T17:26:56;12.13;;;3.75;;
42124;SDS011;27787;44.594;11.046;2023-09-19T17:29:40;13.90;;;4.53;;
42124;SDS011;27787;44.594;11.046;2023-09-19T17:32:24;8.48;;;3.25;;
42124;SDS011;27787;44.594;11.046;2023-09-19T17:35:09;9.93;;;3.90;;
42124;SDS011;27787;44.594;11.046;2023-09-19T17:37:54;12.85;;;4.30;;
42124;SDS011;27787;44.594;11.046;2023-09-19T17:40:39;13.88;;;4.10;;
42124;SDS011;27787;44.594;11.046;2023-09-19T17:46:11;14.45;;;4.82;;
42124;SDS011;27787;44.594;11.046;2023-09-19T17:48:56;7.63;;;4.05;;
42124;SDS011;27787;44.594;11.046;2023-09-19T17:51:42;12.63;;;4.35;;
42124;SDS011;27787;44.594;11.046;2023-09-19T17:54:26;9.82;;;4.28;;